createdAt,value
2023-04-01T00:00:25.981Z,98971.47
2023-04-01T00:00:59.411Z,98968.53
2023-04-01T00:01:31.217Z,98963.81
2023-04-01T00:02:02.898Z,98964.38
2023-04-01T00:02:34.504Z,98968.28
2023-04-01T00:03:06.200Z,98970.09
2023-04-01T00:03:38.244Z,98963.38
2023-04-01T00:04:10.087Z,98962.91
2023-04-01T00:04:42.445Z,98971.41
2023-04-01T00:05:14.355Z,98965.25
2023-04-01T00:05:46.753Z,98967.09
2023-04-01T00:06:19.452Z,98963.44
2023-04-01T00:06:52.661Z,98962.63
2023-04-01T00:07:24.230Z,98966.63
2023-04-01T00:07:56.096Z,98957.34
2023-04-01T00:08:28.172Z,98966.66
2023-04-01T00:08:59.720Z,98960.28
2023-04-01T00:09:31.286Z,98954.44
2023-04-01T00:10:04.297Z,98962.41
2023-04-01T00:10:36.102Z,98959.22
2023-04-01T00:11:07.824Z,98964.25
2023-04-01T00:11:41.413Z,98965.56
2023-04-01T00:12:13.013Z,98958.16
2023-04-01T00:12:45.026Z,98960.38
2023-04-01T00:13:16.824Z,98962.94
2023-04-01T00:13:48.772Z,98965.88
2023-04-01T00:14:20.420Z,98963.03
2023-04-01T00:14:52.146Z,98971.47
2023-04-01T00:15:24.022Z,98967.75
2023-04-01T00:15:56.563Z,98956.34
2023-04-01T00:16:28.937Z,98960.78
2023-04-01T00:17:00.507Z,98965.56
2023-04-01T00:17:32.365Z,98959.25
2023-04-01T00:18:04.289Z,98961.34
2023-04-01T00:18:35.927Z,98963.75
2023-04-01T00:19:07.567Z,98961.31
2023-04-01T00:19:39.069Z,98956.84
2023-04-01T00:20:11.302Z,98965.03
2023-04-01T00:20:47.403Z,98962.41
2023-04-01T00:21:21.424Z,98960.63
2023-04-01T00:21:53.378Z,98957.63
2023-04-01T00:22:25.838Z,98960.25
2023-04-01T00:22:58.168Z,98960.00
2023-04-01T00:23:29.749Z,98958.16
2023-04-01T00:24:01.380Z,98960.03
2023-04-01T00:24:33.054Z,98965.56
2023-04-01T00:25:05.829Z,98959.75
2023-04-01T00:25:37.481Z,98966.38
2023-04-01T00:26:27.571Z,98960.25
2023-04-01T00:26:59.159Z,98962.94
2023-04-01T00:27:30.715Z,98962.16
2023-04-01T00:28:02.406Z,98966.66
2023-04-01T00:28:36.899Z,98955.06
2023-04-01T00:29:09.066Z,98966.22
2023-04-01T00:29:46.084Z,98961.44
2023-04-01T00:30:17.711Z,98959.31
2023-04-01T00:30:49.349Z,98957.13
2023-04-01T00:31:21.519Z,98960.03
2023-04-01T00:31:53.291Z,98961.34
2023-04-01T00:32:25.083Z,98957.75
2023-04-01T00:32:56.889Z,98962.69
2023-04-01T00:33:28.556Z,98960.38
2023-04-01T00:34:00.150Z,98961.97
2023-04-01T00:34:31.669Z,98958.50
2023-04-01T00:35:04.604Z,98964.38
2023-04-01T00:35:36.458Z,98967.47
2023-04-01T00:36:08.083Z,98965.88
2023-04-01T00:36:39.791Z,98959.78
2023-04-01T00:37:12.329Z,98961.34
2023-04-01T00:37:43.944Z,98953.44
2023-04-01T00:38:15.479Z,98960.84
2023-04-01T00:38:47.793Z,98966.38
2023-04-01T00:39:20.876Z,98960.81
2023-04-01T00:39:52.718Z,98961.56
2023-04-01T00:40:39.227Z,98958.16
2023-04-01T00:41:15.472Z,98958.44
2023-04-01T00:41:47.405Z,98961.31
2023-04-01T00:42:19.239Z,98952.31
2023-04-01T00:42:51.175Z,98957.59
2023-04-01T00:43:22.895Z,98958.13
2023-04-01T00:44:21.878Z,98961.88
2023-04-01T00:44:55.322Z,98957.34
2023-04-01T00:45:34.161Z,98955.50
2023-04-01T00:46:06.129Z,98965.06
2023-04-01T00:46:37.867Z,98964.56
2023-04-01T00:47:09.874Z,98963.28
2023-04-01T00:47:41.578Z,98964.00
2023-04-01T00:48:21.870Z,98964.25
2023-04-01T00:48:55.340Z,98968.78
2023-04-01T00:49:33.334Z,98962.88
2023-04-01T00:50:05.388Z,98959.03
2023-04-01T00:50:38.198Z,98964.69
2023-04-01T00:51:19.446Z,98957.78
2023-04-01T00:51:53.376Z,98963.47
2023-04-01T00:52:26.783Z,98963.94
2023-04-01T00:52:59.565Z,98965.56
2023-04-01T00:53:32.003Z,98957.03
2023-04-01T00:54:04.781Z,98962.66
2023-04-01T00:54:37.382Z,98966.13
2023-04-01T00:55:10.027Z,98961.91
2023-04-01T00:55:45.146Z,98969.38
2023-04-01T00:56:20.330Z,98963.75
2023-04-01T00:57:11.140Z,98968.22
2023-04-01T00:57:45.431Z,98965.53
2023-04-01T00:58:18.548Z,98962.06
2023-04-01T00:58:53.342Z,98968.66
2023-04-01T00:59:28.158Z,98971.41
2023-04-01T01:00:00.720Z,98967.41
2023-04-01T01:00:32.543Z,98967.69
2023-04-01T01:01:04.151Z,98969.56
2023-04-01T01:01:36.723Z,98970.88
2023-04-01T01:02:10.066Z,98966.66
2023-04-01T01:02:46.160Z,98963.47
2023-04-01T01:03:18.018Z,98972.50
2023-04-01T01:03:49.582Z,98968.53
2023-04-01T01:04:32.494Z,98965.31
2023-04-01T01:05:04.567Z,98964.25
2023-04-01T01:05:54.832Z,98968.13
2023-04-01T01:06:48.738Z,98974.81
2023-04-01T01:07:41.440Z,98969.50
2023-04-01T01:08:39.071Z,98966.09
2023-04-01T01:09:22.542Z,98968.19
2023-04-01T01:10:00.051Z,98973.50
2023-04-01T01:10:34.382Z,98969.28
2023-04-01T01:11:09.559Z,98977.81
2023-04-01T01:11:52.627Z,98975.63
2023-04-01T01:12:33.722Z,98974.59
2023-04-01T01:13:23.845Z,98969.28
2023-04-01T01:14:10.966Z,98968.22
2023-04-01T01:14:54.286Z,98971.44
2023-04-01T01:15:32.582Z,98962.38
2023-04-01T01:16:07.447Z,98974.59
2023-04-01T01:16:45.589Z,98970.63
2023-04-01T01:17:38.639Z,98977.25
2023-04-01T01:18:31.029Z,98970.84
2023-04-01T01:19:34.882Z,98973.53
2023-04-01T01:20:38.194Z,98968.78
2023-04-01T01:21:21.880Z,98972.50
2023-04-01T01:22:14.420Z,98974.06
2023-04-01T01:23:04.340Z,98970.31
2023-04-01T01:23:47.999Z,98977.50
2023-04-01T01:24:43.243Z,98976.16
2023-04-01T01:25:26.614Z,98971.41
2023-04-01T01:26:15.387Z,98972.19
2023-04-01T01:27:05.591Z,98975.09
2023-04-01T01:27:40.730Z,98978.31
2023-04-01T01:28:45.697Z,98979.91
2023-04-01T01:29:37.992Z,98980.66
2023-04-01T01:30:18.534Z,98974.81
2023-04-01T01:31:11.253Z,98971.91
2023-04-01T01:31:55.809Z,98975.09
2023-04-01T01:32:27.796Z,98968.19
2023-04-01T01:33:17.380Z,98975.09
2023-04-01T01:34:17.138Z,98973.50
2023-04-01T01:34:48.764Z,98975.66
2023-04-01T01:35:30.585Z,98972.16
2023-04-01T01:36:06.409Z,98978.31
2023-04-01T01:36:40.099Z,98975.91
2023-04-01T01:37:16.690Z,98979.13
2023-04-01T01:37:51.959Z,98980.41
2023-04-01T01:38:25.913Z,98976.19
2023-04-01T01:39:08.529Z,98978.84
2023-04-01T01:39:40.710Z,98972.78
2023-04-01T01:40:13.915Z,98979.41
2023-04-01T01:40:49.982Z,98973.00
2023-04-01T01:41:23.182Z,98973.03
2023-04-01T01:41:57.307Z,98980.72
2023-04-01T01:42:31.301Z,98975.44
2023-04-01T01:43:07.696Z,98982.81
2023-04-01T01:43:44.496Z,98980.47
2023-04-01T01:44:19.413Z,98980.34
2023-04-01T01:44:52.191Z,98980.72
2023-04-01T01:45:26.523Z,98976.75
2023-04-01T01:46:01.624Z,98976.75
2023-04-01T01:46:34.342Z,98979.41
2023-04-01T01:47:06.397Z,98985.22
2023-04-01T01:47:38.599Z,98975.91
2023-04-01T01:48:11.405Z,98980.38
2023-04-01T01:48:44.017Z,98990.97
2023-04-01T01:49:17.477Z,98980.13
2023-04-01T01:49:49.548Z,98974.88
2023-04-01T01:50:22.660Z,98985.25
2023-04-01T01:50:54.614Z,98978.34
2023-04-01T01:51:27.768Z,98985.22
2023-04-01T01:51:59.877Z,98977.75
2023-04-01T01:52:31.622Z,98986.53
2023-04-01T01:53:08.347Z,98983.16
2023-04-01T01:53:41.091Z,98981.81
2023-04-01T01:54:15.096Z,98984.47
2023-04-01T01:54:54.767Z,98987.38
2023-04-01T01:55:33.450Z,98976.06
2023-04-01T01:56:06.228Z,98985.56
2023-04-01T01:56:44.473Z,98986.13
2023-04-01T01:57:18.684Z,98986.13
2023-04-01T01:57:55.904Z,98987.72
2023-04-01T01:58:33.757Z,98979.22
2023-04-01T01:59:09.270Z,98983.69
2023-04-01T01:59:41.253Z,98984.22
2023-04-01T02:00:14.725Z,98979.69
2023-04-01T02:00:52.498Z,98986.94
2023-04-01T02:01:26.667Z,98987.91
2023-04-01T02:02:00.619Z,98987.13
2023-04-01T02:02:33.061Z,98984.75
2023-04-01T02:03:05.701Z,98987.38
2023-04-01T02:03:38.530Z,98983.13
2023-04-01T02:04:11.466Z,98992.13
2023-04-01T02:04:45.118Z,98988.16
2023-04-01T02:05:20.808Z,98980.50
2023-04-01T02:05:54.551Z,98992.25
2023-04-01T02:06:28.745Z,98983.69
2023-04-01T02:07:07.613Z,98985.81
2023-04-01T02:07:40.675Z,98994.31
2023-04-01T02:08:19.667Z,98989.53
2023-04-01T02:08:57.778Z,98989.00
2023-04-01T02:09:30.421Z,98993.22
2023-04-01T02:10:02.325Z,98987.66
2023-04-01T02:10:37.788Z,98990.66
2023-04-01T02:11:12.177Z,98994.09
2023-04-01T02:11:56.608Z,98991.44
2023-04-01T02:12:29.915Z,98995.44
2023-04-01T02:13:04.355Z,98996.25
2023-04-01T02:13:40.482Z,98994.28
2023-04-01T02:14:15.624Z,98993.22
2023-04-01T02:14:53.338Z,98989.75
2023-04-01T02:15:25.878Z,98996.69
2023-04-01T02:16:00.440Z,98996.44
2023-04-01T02:16:40.289Z,98987.91
2023-04-01T02:17:14.851Z,98999.09
2023-04-01T02:17:47.577Z,98997.75
2023-04-01T02:18:20.573Z,99000.47
2023-04-01T02:18:54.254Z,98998.28
2023-04-01T02:19:30.539Z,99002.81
2023-04-01T02:20:09.859Z,98992.50
2023-04-01T02:20:42.176Z,98995.16
2023-04-01T02:21:14.085Z,98990.66
2023-04-01T02:21:46.051Z,98995.69
2023-04-01T02:22:21.923Z,98995.97
2023-04-01T02:22:58.814Z,98996.00
2023-04-01T02:23:30.715Z,98994.59
2023-04-01T02:24:06.077Z,98998.84
2023-04-01T02:24:41.314Z,98994.59
2023-04-01T02:25:16.289Z,98998.53
2023-04-01T02:25:47.997Z,98995.09
2023-04-01T02:26:19.845Z,98996.94
2023-04-01T02:26:52.781Z,98997.72
2023-04-01T02:27:24.799Z,98993.22
2023-04-01T02:27:58.192Z,98995.34
2023-04-01T02:28:30.617Z,98995.16
2023-04-01T02:29:02.783Z,98999.63
2023-04-01T02:29:34.515Z,98999.16
2023-04-01T02:30:07.226Z,98999.09
2023-04-01T02:30:40.085Z,99004.94
2023-04-01T02:31:13.119Z,99001.75
2023-04-01T02:31:44.767Z,98994.91
2023-04-01T02:32:17.793Z,98997.50
2023-04-01T02:32:50.223Z,98999.16
2023-04-01T02:33:22.035Z,99002.00
2023-04-01T02:33:55.588Z,98999.34
2023-04-01T02:34:27.448Z,98998.81
2023-04-01T02:35:00.989Z,99000.16
2023-04-01T02:35:35.552Z,98996.41
2023-04-01T02:36:07.754Z,99006.50
2023-04-01T02:36:39.613Z,99000.41
2023-04-01T02:37:12.828Z,99000.16
2023-04-01T02:37:45.408Z,99002.28
2023-04-01T02:38:17.114Z,99006.06
2023-04-01T02:38:49.801Z,99000.16
2023-04-01T02:39:21.754Z,99000.09
2023-04-01T02:39:53.551Z,99007.03
2023-04-01T02:40:25.913Z,99005.47
2023-04-01T02:41:01.365Z,99007.59
2023-04-01T02:41:32.985Z,99011.81
2023-04-01T02:42:04.628Z,99010.47
2023-04-01T02:42:36.840Z,99011.91
2023-04-01T02:43:09.374Z,99005.22
2023-04-01T02:43:41.203Z,99008.66
2023-04-01T02:44:14.125Z,99014.50
2023-04-01T02:44:45.864Z,99017.22
2023-04-01T02:45:17.546Z,99010.88
2023-04-01T02:45:49.080Z,99011.09
2023-04-01T02:46:20.752Z,99008.78
2023-04-01T02:46:53.699Z,99012.19
2023-04-01T02:47:25.462Z,99015.59
2023-04-01T02:47:57.160Z,99013.19
2023-04-01T02:48:29.197Z,99012.69
2023-04-01T02:49:01.065Z,99022.41
2023-04-01T02:49:32.684Z,99010.22
2023-04-01T02:50:04.941Z,99022.47
2023-04-01T02:50:36.728Z,99003.56
2023-04-01T02:51:09.371Z,99013.13
2023-04-01T02:51:40.945Z,99013.44
2023-04-01T02:52:12.715Z,99005.47
2023-04-01T02:52:44.248Z,99026.16
2023-04-01T02:53:16.373Z,99016.56
2023-04-01T02:53:47.965Z,99016.31
2023-04-01T02:54:20.444Z,99017.56
2023-04-01T02:54:52.203Z,99023.44
2023-04-01T02:55:23.907Z,99014.75
2023-04-01T02:55:55.504Z,99019.00
2023-04-01T02:56:27.293Z,99021.31
2023-04-01T02:56:58.980Z,99016.31
2023-04-01T02:57:30.852Z,99022.97
2023-04-01T02:58:02.734Z,99025.38
2023-04-01T02:58:34.986Z,99012.09
2023-04-01T02:59:06.567Z,99010.72
2023-04-01T02:59:38.184Z,99024.31
2023-04-01T03:00:12.223Z,99010.78
2023-04-01T03:00:43.926Z,99016.03
2023-04-01T03:01:15.895Z,99010.03
2023-04-01T03:01:47.536Z,99024.00
2023-04-01T03:02:19.430Z,99029.28
2023-04-01T03:02:51.141Z,99026.09
2023-04-01T03:03:22.816Z,99029.03
2023-04-01T03:03:54.370Z,99024.56
2023-04-01T03:04:26.148Z,99028.75
2023-04-01T03:04:57.747Z,99030.38
2023-04-01T03:05:29.573Z,99030.88
2023-04-01T03:06:08.869Z,99022.97
2023-04-01T03:06:40.381Z,99020.22
2023-04-01T03:07:12.209Z,99027.69
2023-04-01T03:07:44.305Z,99031.72
2023-04-01T03:08:16.224Z,99029.06
2023-04-01T03:08:48.437Z,99018.19
2023-04-01T03:09:20.204Z,99030.63
2023-04-01T03:09:52.046Z,99030.44
2023-04-01T03:10:23.729Z,99030.94
2023-04-01T03:10:55.374Z,99026.69
2023-04-01T03:11:27.214Z,99029.06
2023-04-01T03:11:58.978Z,99037.81
2023-04-01T03:12:30.750Z,99030.38
2023-04-01T03:13:02.628Z,99035.94
2023-04-01T03:13:34.641Z,99033.53
2023-04-01T03:14:06.229Z,99034.34
2023-04-01T03:14:37.755Z,99035.66
2023-04-01T03:15:12.375Z,99036.16
2023-04-01T03:15:44.667Z,99031.16
2023-04-01T03:16:16.450Z,99032.75
2023-04-01T03:16:48.189Z,99037.25
2023-04-01T03:17:19.813Z,99035.56
2023-04-01T03:17:52.373Z,99034.84
2023-04-01T03:18:24.092Z,99039.56
2023-04-01T03:18:57.807Z,99044.38
2023-04-01T03:19:29.530Z,99037.75
2023-04-01T03:20:01.112Z,99043.56
2023-04-01T03:20:32.684Z,99039.06
2023-04-01T03:21:18.990Z,99037.75
2023-04-01T03:21:50.534Z,99038.47
2023-04-01T03:22:22.341Z,99039.63
2023-04-01T03:22:53.938Z,99034.25
2023-04-01T03:23:25.750Z,99039.56
2023-04-01T03:23:57.352Z,99040.88
2023-04-01T03:24:28.956Z,99043.34
2023-04-01T03:25:00.664Z,99036.50
2023-04-01T03:25:32.495Z,99044.59
2023-04-01T03:26:04.456Z,99041.94
2023-04-01T03:26:35.988Z,99042.91
2023-04-01T03:27:07.572Z,99047.41
2023-04-01T03:27:39.356Z,99042.66
2023-04-01T03:28:13.373Z,99044.47
2023-04-01T03:28:45.479Z,99042.34
2023-04-01T03:29:17.613Z,99042.09
2023-04-01T03:29:49.322Z,99046.06
2023-04-01T03:30:21.036Z,99051.16
2023-04-01T03:30:55.737Z,99046.63
2023-04-01T03:31:27.572Z,99043.16
2023-04-01T03:32:01.851Z,99048.16
2023-04-01T03:32:33.494Z,99049.31
2023-04-01T03:33:05.163Z,99047.16
2023-04-01T03:33:37.351Z,99046.06
2023-04-01T03:34:09.908Z,99045.56
2023-04-01T03:34:41.601Z,99057.06
2023-04-01T03:35:13.561Z,99055.13
2023-04-01T03:35:45.160Z,99059.38
2023-04-01T03:36:16.985Z,99057.78
2023-04-01T03:36:48.544Z,99050.38
2023-04-01T03:37:20.497Z,99053.59
2023-04-01T03:37:54.298Z,99054.06
2023-04-01T03:38:26.014Z,99056.81
2023-04-01T03:38:57.643Z,99058.91
2023-04-01T03:39:38.471Z,99061.13
2023-04-01T03:40:11.167Z,99058.41
2023-04-01T03:40:45.780Z,99058.91
2023-04-01T03:41:18.263Z,99055.22
2023-04-01T03:41:50.093Z,99059.50
2023-04-01T03:42:21.827Z,99058.66
2023-04-01T03:42:53.827Z,99066.63
2023-04-01T03:43:25.605Z,99057.06
2023-04-01T03:43:57.229Z,99060.56
2023-04-01T03:44:33.139Z,99059.50
2023-04-01T03:45:06.002Z,99061.63
2023-04-01T03:45:44.613Z,99059.31
2023-04-01T03:46:19.811Z,99059.00
2023-04-01T03:46:51.780Z,99059.59
2023-04-01T03:47:23.402Z,99063.78
2023-04-01T03:47:55.448Z,99065.84
2023-04-01T03:48:27.432Z,99065.06
2023-04-01T03:48:59.172Z,99061.63
2023-04-01T03:49:31.092Z,99062.13
2023-04-01T03:50:03.971Z,99063.66
2023-04-01T03:50:36.335Z,99064.03
2023-04-01T03:51:09.030Z,99060.81
2023-04-01T03:51:44.667Z,99069.03
2023-04-01T03:52:16.614Z,99063.72
2023-04-01T03:52:48.234Z,99067.47
2023-04-01T03:53:20.079Z,99063.53
2023-04-01T03:53:52.551Z,99064.28
2023-04-01T03:54:24.200Z,99064.44
2023-04-01T03:54:55.740Z,99062.59
2023-04-01T03:55:27.466Z,99067.59
2023-04-01T03:55:58.984Z,99075.22
2023-04-01T03:56:30.662Z,99060.91
2023-04-01T03:57:02.251Z,99072.13
2023-04-01T03:57:34.248Z,99066.81
2023-04-01T03:58:15.187Z,99063.09
2023-04-01T03:58:46.850Z,99062.69
2023-04-01T03:59:18.701Z,99073.22
2023-04-01T03:59:50.673Z,99064.81
2023-04-01T04:00:22.341Z,99066.63
2023-04-01T04:00:58.772Z,99070.09
2023-04-01T04:01:30.777Z,99066.09
2023-04-01T04:02:02.849Z,99066.09
2023-04-01T04:02:34.944Z,99071.16
2023-04-01T04:03:07.972Z,99071.44
2023-04-01T04:03:40.977Z,99071.94
2023-04-01T04:04:14.179Z,99072.75
2023-04-01T04:04:47.359Z,99063.66
2023-04-01T04:05:19.251Z,99076.13
2023-04-01T04:05:51.255Z,99065.88
2023-04-01T04:06:24.484Z,99067.44
2023-04-01T04:06:57.293Z,99070.56
2023-04-01T04:07:29.842Z,99067.91
2023-04-01T04:08:07.814Z,99070.56
2023-04-01T04:08:39.996Z,99067.47
2023-04-01T04:09:11.591Z,99067.44
2023-04-01T04:09:43.282Z,99064.22
2023-04-01T04:10:15.434Z,99061.63
2023-04-01T04:10:47.531Z,99073.59
2023-04-01T04:11:20.184Z,99067.47
2023-04-01T04:11:52.383Z,99071.25
2023-04-01T04:12:23.912Z,99070.13
2023-04-01T04:12:55.710Z,99070.63
2023-04-01T04:13:29.135Z,99071.75
2023-04-01T04:14:06.093Z,99078.66
2023-04-01T04:14:37.682Z,99067.97
2023-04-01T04:15:10.406Z,99075.41
2023-04-01T04:15:42.100Z,99069.34
2023-04-01T04:16:13.736Z,99066.13
2023-04-01T04:16:50.232Z,99068.34
2023-04-01T04:17:21.774Z,99069.09
2023-04-01T04:17:53.413Z,99074.34
2023-04-01T04:18:24.981Z,99065.06
2023-04-01T04:18:56.878Z,99069.84
2023-04-01T04:19:34.934Z,99076.72
2023-04-01T04:20:07.504Z,99070.00
2023-04-01T04:20:49.479Z,99070.50
2023-04-01T04:21:21.156Z,99069.22
2023-04-01T04:21:52.907Z,99068.41
2023-04-01T04:22:24.774Z,99080.63
2023-04-01T04:22:56.461Z,99076.94
2023-04-01T04:23:29.381Z,99070.00
2023-04-01T04:24:02.101Z,99074.84
2023-04-01T04:24:41.433Z,99077.25
2023-04-01T04:25:16.720Z,99077.44
2023-04-01T04:25:58.928Z,99075.97
2023-04-01T04:26:31.530Z,99075.16
2023-04-01T04:27:05.672Z,99071.69
2023-04-01T04:27:37.426Z,99075.81
2023-04-01T04:28:13.453Z,99074.34
2023-04-01T04:28:45.303Z,99069.09
2023-04-01T04:29:17.300Z,99075.16
2023-04-01T04:29:49.020Z,99075.41
2023-04-01T04:30:20.606Z,99078.53
2023-04-01T04:30:52.326Z,99074.44
2023-04-01T04:31:25.096Z,99083.91
2023-04-01T04:31:58.246Z,99080.75
2023-04-01T04:32:31.271Z,99075.44
2023-04-01T04:33:03.144Z,99074.66
2023-04-01T04:33:35.377Z,99079.13
2023-04-01T04:34:07.354Z,99077.56
2023-04-01T04:34:40.748Z,99078.09
2023-04-01T04:35:12.704Z,99079.16
2023-04-01T04:35:45.409Z,99077.06
2023-04-01T04:36:17.168Z,99080.25
2023-04-01T04:36:49.576Z,99080.25
2023-04-01T04:37:21.260Z,99083.63
2023-04-01T04:37:52.798Z,99081.25
2023-04-01T04:38:25.415Z,99084.34
2023-04-01T04:38:58.983Z,99076.63
2023-04-01T04:39:30.722Z,99078.22
2023-04-01T04:40:02.324Z,99092.56
2023-04-01T04:40:37.843Z,99091.75
2023-04-01T04:41:13.722Z,99087.88
2023-04-01T04:41:47.121Z,99085.22
2023-04-01T04:42:18.627Z,99088.06
2023-04-01T04:42:50.812Z,99083.75
2023-04-01T04:43:22.520Z,99094.66
2023-04-01T04:43:57.592Z,99094.00
2023-04-01T04:44:29.908Z,99087.06
2023-04-01T04:45:03.003Z,99085.47
2023-04-01T04:45:35.520Z,99090.16
2023-04-01T04:46:09.885Z,99094.16
2023-04-01T04:46:41.676Z,99091.75
2023-04-01T04:47:19.117Z,99095.59
2023-04-01T04:47:50.834Z,99097.88
2023-04-01T04:48:22.910Z,99093.66
2023-04-01T04:48:54.579Z,99097.19
2023-04-01T04:49:26.709Z,99095.91
2023-04-01T04:49:58.618Z,99093.44
2023-04-01T04:50:30.627Z,99096.56
2023-04-01T04:51:02.599Z,99097.63
2023-04-01T04:51:36.706Z,99098.97
2023-04-01T04:52:08.546Z,99102.94
2023-04-01T04:52:40.160Z,99096.56
2023-04-01T04:53:13.348Z,99091.81
2023-04-01T04:53:45.908Z,99102.44
2023-04-01T04:54:17.996Z,99102.38
2023-04-01T04:54:59.128Z,99095.97
2023-04-01T04:55:31.030Z,99108.19
2023-04-01T04:56:26.268Z,99103.69
2023-04-01T04:57:12.433Z,99102.56
2023-04-01T04:57:50.470Z,99097.81
2023-04-01T04:58:22.534Z,99101.41
2023-04-01T04:58:55.394Z,99094.91
2023-04-01T04:59:31.854Z,99103.13
2023-04-01T05:00:25.952Z,99104.69
2023-04-01T05:01:11.807Z,99103.63
2023-04-01T05:01:44.525Z,99104.97
2023-04-01T05:02:16.549Z,99103.38
2023-04-01T05:02:48.205Z,99106.09
2023-04-01T05:03:19.913Z,99108.69
2023-04-01T05:03:52.554Z,99103.38
2023-04-01T05:04:24.613Z,99108.69
2023-04-01T05:04:56.274Z,99102.81
2023-04-01T05:05:27.895Z,99105.28
2023-04-01T05:05:59.604Z,99106.38
2023-04-01T05:06:32.284Z,99109.28
2023-04-01T05:07:03.925Z,99108.25
2023-04-01T05:07:37.122Z,99109.03
2023-04-01T05:08:08.765Z,99110.91
2023-04-01T05:08:41.416Z,99107.69
2023-04-01T05:09:13.212Z,99114.06
2023-04-01T05:09:46.691Z,99113.00
2023-04-01T05:10:19.314Z,99115.72
2023-04-01T05:10:51.144Z,99103.47
2023-04-01T05:11:22.720Z,99117.75
2023-04-01T05:11:56.212Z,99107.38
2023-04-01T05:12:29.441Z,99111.41
2023-04-01T05:13:06.333Z,99110.34
2023-04-01T05:13:37.994Z,99108.50
2023-04-01T05:14:16.636Z,99111.91
2023-04-01T05:14:53.946Z,99109.78
2023-04-01T05:15:25.654Z,99111.91
2023-04-01T05:15:57.258Z,99106.59
2023-04-01T05:16:29.106Z,99108.69
2023-04-01T05:17:00.704Z,99108.13
2023-04-01T05:17:32.460Z,99106.59
2023-04-01T05:18:05.118Z,99109.78
2023-04-01T05:18:36.672Z,99116.41
2023-04-01T05:19:08.492Z,99112.94
2023-04-01T05:19:40.570Z,99119.31
2023-04-01T05:20:13.621Z,99112.19
2023-04-01T05:20:53.337Z,99114.31
2023-04-01T05:21:25.056Z,99116.53
2023-04-01T05:21:57.695Z,99120.72
2023-04-01T05:22:29.312Z,99122.50
2023-04-01T05:23:01.430Z,99116.72
2023-04-01T05:23:34.046Z,99123.88
2023-04-01T05:24:09.457Z,99123.81
2023-04-01T05:24:41.195Z,99119.31
2023-04-01T05:25:12.885Z,99119.56
2023-04-01T05:25:46.115Z,99121.41
2023-04-01T05:26:17.760Z,99120.59
2023-04-01T05:26:49.297Z,99117.25
2023-04-01T05:27:21.308Z,99119.31
2023-04-01T05:27:53.034Z,99126.72
2023-04-01T05:28:24.669Z,99123.50
2023-04-01T05:28:58.319Z,99119.41
2023-04-01T05:29:30.045Z,99123.75
2023-04-01T05:30:09.726Z,99124.38
2023-04-01T05:31:01.587Z,99123.63
2023-04-01T05:31:38.772Z,99126.84
2023-04-01T05:32:11.146Z,99128.38
2023-04-01T05:32:44.035Z,99115.59
2023-04-01T05:33:15.813Z,99128.13
2023-04-01T05:33:47.544Z,99121.03
2023-04-01T05:34:19.152Z,99125.72
2023-04-01T05:34:54.504Z,99119.41
2023-04-01T05:35:26.984Z,99122.81
2023-04-01T05:36:08.755Z,99129.75
2023-04-01T05:36:41.033Z,99124.13
2023-04-01T05:37:12.662Z,99131.53
2023-04-01T05:37:44.229Z,99127.34
2023-04-01T05:38:16.164Z,99125.41
2023-04-01T05:38:48.199Z,99128.06
2023-04-01T05:39:25.303Z,99123.81
2023-04-01T05:39:56.907Z,99125.72
2023-04-01T05:40:29.275Z,99124.63
2023-04-01T05:41:01.971Z,99129.44
2023-04-01T05:41:38.222Z,99129.94
2023-04-01T05:42:09.949Z,99127.88
2023-04-01T05:42:41.602Z,99133.69
2023-04-01T05:43:13.267Z,99126.84
2023-04-01T05:43:45.672Z,99128.88
2023-04-01T05:44:49.387Z,99127.28
2023-04-01T05:45:39.291Z,99134.19
2023-04-01T05:46:19.720Z,99131.59
2023-04-01T05:46:58.590Z,99135.84
2023-04-01T05:47:31.696Z,99138.94
2023-04-01T05:48:03.667Z,99136.84
2023-04-01T05:48:41.678Z,99136.34
2023-04-01T05:49:13.515Z,99131.84
2023-04-01T05:49:45.283Z,99135.75
2023-04-01T05:50:17.367Z,99135.78
2023-04-01T05:50:49.006Z,99138.94
2023-04-01T05:51:20.561Z,99145.88
2023-04-01T05:51:52.362Z,99148.50
2023-04-01T05:52:25.028Z,99143.75
2023-04-01T05:52:56.698Z,99141.09
2023-04-01T05:53:30.747Z,99143.75
2023-04-01T05:54:02.432Z,99138.59
2023-04-01T05:54:34.374Z,99152.84
2023-04-01T05:55:06.598Z,99143.25
2023-04-01T05:55:38.172Z,99145.38
2023-04-01T05:56:13.307Z,99139.06
2023-04-01T05:56:50.835Z,99145.06
2023-04-01T05:57:24.127Z,99145.06
2023-04-01T05:57:55.948Z,99145.91
2023-04-01T05:58:27.521Z,99151.47
2023-04-01T05:58:59.341Z,99145.91
2023-04-01T05:59:32.322Z,99143.25
2023-04-01T06:00:05.288Z,99150.69
2023-04-01T06:00:43.849Z,99150.81
2023-04-01T06:01:16.532Z,99149.13
2023-04-01T06:01:49.557Z,99151.78
2023-04-01T06:02:21.246Z,99146.97
2023-04-01T06:02:53.408Z,99153.38
2023-04-01T06:03:25.245Z,99145.06
2023-04-01T06:03:56.983Z,99149.06
2023-04-01T06:04:34.551Z,99156.00
2023-04-01T06:05:21.940Z,99156.94
2023-04-01T06:05:53.464Z,99151.78
2023-04-01T06:06:27.469Z,99155.50
2023-04-01T06:07:11.894Z,99156.00
2023-04-01T06:07:43.432Z,99156.53
2023-04-01T06:08:20.108Z,99154.69
2023-04-01T06:08:54.058Z,99159.75
2023-04-01T06:09:30.132Z,99158.69
2023-04-01T06:10:02.083Z,99161.84
2023-04-01T06:10:41.532Z,99160.81
2023-04-01T06:11:24.758Z,99165.63
2023-04-01T06:12:05.738Z,99164.00
2023-04-01T06:12:53.011Z,99163.59
2023-04-01T06:14:04.834Z,99168.59
2023-04-01T06:14:40.378Z,99165.94
2023-04-01T06:15:33.779Z,99172.06
2023-04-01T06:16:11.665Z,99167.81
2023-04-01T06:17:13.638Z,99165.38
2023-04-01T06:17:54.125Z,99171.25
2023-04-01T06:18:50.489Z,99168.66
2023-04-01T06:19:43.105Z,99170.47
2023-04-01T06:20:42.218Z,99167.22
2023-04-01T06:21:35.884Z,99171.19
2023-04-01T06:22:47.667Z,99173.03
2023-04-01T06:23:41.141Z,99180.03
2023-04-01T06:25:01.027Z,99181.38
2023-04-01T06:25:52.833Z,99181.88
2023-04-01T06:26:43.200Z,99180.59
2023-04-01T06:27:32.794Z,99183.25
2023-04-01T06:28:34.411Z,99184.53
2023-04-01T06:29:24.293Z,99182.09
2023-04-01T06:30:14.590Z,99187.56
2023-04-01T06:30:54.571Z,99181.56
2023-04-01T06:31:45.655Z,99190.56
2023-04-01T06:32:21.584Z,99189.59
2023-04-01T06:33:12.263Z,99189.59
2023-04-01T06:33:57.577Z,99192.25
2023-04-01T06:34:53.552Z,99186.22
2023-04-01T06:35:44.938Z,99185.72
2023-04-01T06:36:22.790Z,99192.38
2023-04-01T06:37:06.688Z,99193.53
2023-04-01T06:37:54.835Z,99190.34
2023-04-01T06:38:29.443Z,99190.34
2023-04-01T06:39:18.940Z,99190.34
2023-04-01T06:40:21.242Z,99192.50
2023-04-01T06:41:13.797Z,99220.00
2023-04-01T06:41:52.078Z,99221.16
2023-04-01T06:42:30.281Z,99211.88
2023-04-01T06:43:17.241Z,99213.84
2023-04-01T06:44:42.765Z,99218.94
2023-04-01T06:45:47.971Z,99215.00
2023-04-01T06:46:38.388Z,99222.47
2023-04-01T06:47:59.231Z,99221.97
2023-04-01T06:49:27.151Z,99217.44
2023-04-01T06:50:48.995Z,99217.16
2023-04-01T06:51:35.551Z,99224.63
2023-04-01T06:53:07.844Z,99227.84
2023-04-01T06:54:09.642Z,99225.31
2023-04-01T06:55:02.333Z,99224.06
2023-04-01T06:55:56.634Z,99228.28
2023-04-01T06:56:43.678Z,99225.69
2023-04-01T06:57:33.041Z,99216.66
2023-04-01T06:58:10.777Z,99231.53
2023-04-01T06:58:57.329Z,99233.16
2023-04-01T06:59:31.624Z,99232.09
2023-04-01T07:00:06.181Z,99230.00